Aérodrome :
LOGIN :

S'inscrire | Disclaimer

   EN    FR    IT 

 










Légende :    VFR   VFR Marginal   IFR   IFR Intensif   IFR Très Intensif
Visi : 
Plafond : 
>= 8 km
>= 3000ft
5 à 8 km
1000 à 3000 ft
1500m à 5 km
500 à 1000 ft
800 à 1500m
200 à 500 ft
< 800m
< 200 ft
Symboles :   Orages  Brouillard  Fortes neiges  Fortes précipitations  Vent > 20 kt
SIGMETs :   Divers  Orages  Givrage  Turbulence  Onde Orograph.  Cendres Volcan.







- Altitude de l'aérodrome : 526 ft
- Code IATA : LTN
- Voir les cartes d'approche


EGGW - London Luton

DERNIER METAR :
  • 141220Z 24012KT 9999 FEW021 SCT029 05/02 Q0990

METARs EXPIRÉS :
  • 141150Z AUTO 24014KT 9999 BKN027 05/01 Q0990
  • 141120Z AUTO 24012KT 9999 SCT029 05/01 Q0990
  • 141050Z AUTO 24013KT 9999 BKN029 04/01 Q0991
  • 141020Z AUTO 24013KT 9999 FEW035 04/01 Q0991
  • 140950Z AUTO 23013KT 9999 NCD 04/00 Q0991

TAF TAF EGGW
Valide du 14 à 12h jusqu'au 15 à 12h UTC


141105Z 1412/1512 26014KT 9999 SCT030
BECMG 1416/1419 20009KT
TEMPO 1420/1511 7000 SHRA BKN007
PROB30
TEMPO 1500/1511 3000 SHRASN BKN003
BECMG 1507/1510 34010KT
PROB30
TEMPO 1511/1512 -SHRA BKN014
ATIS : +44 1582 395 204
Pas de NOTAMs connus pour ce terrain.
1 SIGMET publié pour la FIR London (EGTT) :
 
Turbulence forte
EGTT SIGMET 03 VALID 141100/141500 EGRR
EGTT LONDON FIR SEV TURB FCST SW OF LINE N5000 W00019 - N5153 W00620 SFC/FL060 STNR NC=



MET'MAP, la Météo Aéronautique d'un coup d'oeil ! - Copyright ORBIFLY Décembre 2007 - Disclaimer

ORBIFLY MET'MAP TEAM :

Programmation & Développement : Alexandra Zaïnal
Conception & Développement : Baudouin d'Aumeries
Co-Programmation & Développement : Marc-Olivier Méhu
Soutien technique & logistique : Manuel Goepfert

Contact : metmap@orbifly.com




SOURCES & CREDITS :

   NOAA